sensor_id;sensor_type;location;lat;lon;timestamp;P1;durP1;ratioP1;P2;durP2;ratioP2
44078;SDS011;29744;49.078;12.878;2023-02-26T00:01:56;0.20;;;0.10;;
44078;SDS011;29744;49.078;12.878;2023-02-26T00:07:00;0.20;;;0.15;;
44078;SDS011;29744;49.078;12.878;2023-02-26T00:12:00;0.35;;;0.10;;
44078;SDS011;29744;49.078;12.878;2023-02-26T00:17:06;0.52;;;0.20;;
44078;SDS011;29744;49.078;12.878;2023-02-26T00:22:15;0.20;;;0.17;;
44078;SDS011;29744;49.078;12.878;2023-02-26T00:27:15;0.30;;;0.13;;
44078;SDS011;29744;49.078;12.878;2023-02-26T00:32:15;0.47;;;0.30;;
44078;SDS011;29744;49.078;12.878;2023-02-26T00:37:26;0.30;;;0.30;;
44078;SDS011;29744;49.078;12.878;2023-02-26T00:42:40;0.10;;;0.10;;
44078;SDS011;29744;49.078;12.878;2023-02-26T00:53:00;0.20;;;0.17;;
44078;SDS011;29744;49.078;12.878;2023-02-26T00:58:12;0.10;;;0.10;;
44078;SDS011;29744;49.078;12.878;2023-02-26T01:03:12;0.10;;;0.10;;
44078;SDS011;29744;49.078;12.878;2023-02-26T01:08:22;0.32;;;0.15;;
44078;SDS011;29744;49.078;12.878;2023-02-26T01:13:28;0.10;;;0.10;;
44078;SDS011;29744;49.078;12.878;2023-02-26T01:18:41;0.20;;;0.20;;
44078;SDS011;29744;49.078;12.878;2023-02-26T01:23:46;0.57;;;0.20;;
44078;SDS011;29744;49.078;12.878;2023-02-26T01:28:50;0.52;;;0.30;;
44078;SDS011;29744;49.078;12.878;2023-02-26T01:33:52;0.20;;;0.20;;
44078;SDS011;29744;49.078;12.878;2023-02-26T01:39:18;0.20;;;0.20;;
44078;SDS011;29744;49.078;12.878;2023-02-26T01:44:41;0.30;;;0.20;;
44078;SDS011;29744;49.078;12.878;2023-02-26T01:50:04;0.15;;;0.10;;
44078;SDS011;29744;49.078;12.878;2023-02-26T01:55:10;0.95;;;0.38;;
44078;SDS011;29744;49.078;12.878;2023-02-26T02:00:10;0.10;;;0.10;;
44078;SDS011;29744;49.078;12.878;2023-02-26T02:05:21;0.20;;;0.20;;
44078;SDS011;29744;49.078;12.878;2023-02-26T02:10:27;0.25;;;0.20;;
44078;SDS011;29744;49.078;12.878;2023-02-26T02:20:53;0.20;;;0.20;;
44078;SDS011;29744;49.078;12.878;2023-02-26T02:26:17;0.30;;;0.20;;
44078;SDS011;29744;49.078;12.878;2023-02-26T02:31:41;0.20;;;0.10;;
44078;SDS011;29744;49.078;12.878;2023-02-26T02:36:51;0.10;;;0.10;;
44078;SDS011;29744;49.078;12.878;2023-02-26T02:42:02;0.10;;;0.10;;
44078;SDS011;29744;49.078;12.878;2023-02-26T02:47:06;0.20;;;0.10;;
44078;SDS011;29744;49.078;12.878;2023-02-26T02:52:20;0.20;;;0.13;;
44078;SDS011;29744;49.078;12.878;2023-02-26T02:57:30;0.10;;;0.10;;
44078;SDS011;29744;49.078;12.878;2023-02-26T03:08:00;0.10;;;0.10;;
44078;SDS011;29744;49.078;12.878;2023-02-26T03:13:04;0.22;;;0.20;;
44078;SDS011;29744;49.078;12.878;2023-02-26T03:18:15;0.10;;;0.10;;
44078;SDS011;29744;49.078;12.878;2023-02-26T03:23:20;0.20;;;0.10;;
44078;SDS011;29744;49.078;12.878;2023-02-26T03:28:27;0.13;;;0.13;;
44078;SDS011;29744;49.078;12.878;2023-02-26T03:34:00;0.45;;;0.20;;
44078;SDS011;29744;49.078;12.878;2023-02-26T03:44:26;0.10;;;0.10;;
44078;SDS011;29744;49.078;12.878;2023-02-26T03:49:30;0.32;;;0.20;;
44078;SDS011;29744;49.078;12.878;2023-02-26T03:54:35;0.22;;;0.20;;
44078;SDS011;29744;49.078;12.878;2023-02-26T03:59:40;0.13;;;0.10;;
44078;SDS011;29744;49.078;12.878;2023-02-26T04:04:43;0.03;;;0.03;;
44078;SDS011;29744;49.078;12.878;2023-02-26T04:09:45;0.20;;;0.20;;
44078;SDS011;29744;49.078;12.878;2023-02-26T04:14:47;0.10;;;0.10;;
44078;SDS011;29744;49.078;12.878;2023-02-26T04:19:48;0.10;;;0.10;;
44078;SDS011;29744;49.078;12.878;2023-02-26T04:24:48;0.10;;;0.10;;
44078;SDS011;29744;49.078;12.878;2023-02-26T04:29:48;0.10;;;0.10;;
44078;SDS011;29744;49.078;12.878;2023-02-26T04:34:49;0.10;;;0.10;;
44078;SDS011;29744;49.078;12.878;2023-02-26T04:39:49;0.10;;;0.10;;
44078;SDS011;29744;49.078;12.878;2023-02-26T04:44:49;0.20;;;0.20;;
44078;SDS011;29744;49.078;12.878;2023-02-26T04:49:49;0.20;;;0.20;;
44078;SDS011;29744;49.078;12.878;2023-02-26T04:54:50;0.43;;;0.20;;
44078;SDS011;29744;49.078;12.878;2023-02-26T04:59:50;0.20;;;0.10;;
44078;SDS011;29744;49.078;12.878;2023-02-26T05:04:50;0.10;;;0.10;;
44078;SDS011;29744;49.078;12.878;2023-02-26T05:09:51;0.13;;;0.13;;
44078;SDS011;29744;49.078;12.878;2023-02-26T05:14:51;0.13;;;0.10;;
44078;SDS011;29744;49.078;12.878;2023-02-26T05:19:51;0.20;;;0.10;;
44078;SDS011;29744;49.078;12.878;2023-02-26T05:24:51;0.10;;;0.10;;
44078;SDS011;29744;49.078;12.878;2023-02-26T05:29:52;0.10;;;0.10;;
44078;SDS011;29744;49.078;12.878;2023-02-26T05:34:52;0.15;;;0.15;;
44078;SDS011;29744;49.078;12.878;2023-02-26T05:39:53;0.28;;;0.20;;
44078;SDS011;29744;49.078;12.878;2023-02-26T05:44:53;0.10;;;0.10;;
44078;SDS011;29744;49.078;12.878;2023-02-26T05:49:53;0.10;;;0.10;;
44078;SDS011;29744;49.078;12.878;2023-02-26T05:54:54;0.05;;;0.05;;
44078;SDS011;29744;49.078;12.878;2023-02-26T05:59:55;0.10;;;0.10;;
44078;SDS011;29744;49.078;12.878;2023-02-26T06:04:55;0.10;;;0.10;;
44078;SDS011;29744;49.078;12.878;2023-02-26T06:09:55;0.10;;;0.10;;
44078;SDS011;29744;49.078;12.878;2023-02-26T06:14:56;0.10;;;0.10;;
44078;SDS011;29744;49.078;12.878;2023-02-26T06:19:56;0.00;;;0.00;;
44078;SDS011;29744;49.078;12.878;2023-02-26T06:24:56;0.10;;;0.00;;
44078;SDS011;29744;49.078;12.878;2023-02-26T06:29:57;0.10;;;0.10;;
44078;SDS011;29744;49.078;12.878;2023-02-26T06:34:57;0.10;;;0.10;;
44078;SDS011;29744;49.078;12.878;2023-02-26T06:39:57;0.13;;;0.10;;
44078;SDS011;29744;49.078;12.878;2023-02-26T06:44:57;0.10;;;0.00;;
44078;SDS011;29744;49.078;12.878;2023-02-26T06:49:58;0.10;;;0.10;;
44078;SDS011;29744;49.078;12.878;2023-02-26T06:54:58;0.10;;;0.10;;
44078;SDS011;29744;49.078;12.878;2023-02-26T06:59:58;0.40;;;0.17;;
44078;SDS011;29744;49.078;12.878;2023-02-26T07:04:59;0.10;;;0.10;;
44078;SDS011;29744;49.078;12.878;2023-02-26T07:10:00;0.10;;;0.10;;
44078;SDS011;29744;49.078;12.878;2023-02-26T07:15:00;0.10;;;0.10;;
44078;SDS011;29744;49.078;12.878;2023-02-26T07:20:00;0.10;;;0.10;;
44078;SDS011;29744;49.078;12.878;2023-02-26T07:25:05;0.10;;;0.10;;
44078;SDS011;29744;49.078;12.878;2023-02-26T07:30:06;0.30;;;0.20;;
44078;SDS011;29744;49.078;12.878;2023-02-26T07:35:07;0.10;;;0.10;;
44078;SDS011;29744;49.078;12.878;2023-02-26T07:40:08;0.13;;;0.08;;
44078;SDS011;29744;49.078;12.878;2023-02-26T07:45:09;0.10;;;0.10;;
44078;SDS011;29744;49.078;12.878;2023-02-26T07:50:10;0.10;;;0.10;;
44078;SDS011;29744;49.078;12.878;2023-02-26T07:55:11;0.20;;;0.17;;
44078;SDS011;29744;49.078;12.878;2023-02-26T08:00:11;0.03;;;0.03;;
44078;SDS011;29744;49.078;12.878;2023-02-26T08:05:12;0.20;;;0.08;;
44078;SDS011;29744;49.078;12.878;2023-02-26T08:10:12;0.10;;;0.10;;
44078;SDS011;29744;49.078;12.878;2023-02-26T08:15:15;0.10;;;0.10;;
44078;SDS011;29744;49.078;12.878;2023-02-26T08:20:16;0.20;;;0.20;;
44078;SDS011;29744;49.078;12.878;2023-02-26T08:25:16;0.10;;;0.10;;
44078;SDS011;29744;49.078;12.878;2023-02-26T08:30:17;0.10;;;0.10;;
44078;SDS011;29744;49.078;12.878;2023-02-26T08:35:18;0.08;;;0.08;;
44078;SDS011;29744;49.078;12.878;2023-02-26T08:40:18;0.22;;;0.10;;
44078;SDS011;29744;49.078;12.878;2023-02-26T08:45:19;0.10;;;0.10;;
44078;SDS011;29744;49.078;12.878;2023-02-26T08:50:19;0.20;;;0.17;;
44078;SDS011;29744;49.078;12.878;2023-02-26T08:55:19;0.10;;;0.10;;
44078;SDS011;29744;49.078;12.878;2023-02-26T09:00:20;0.10;;;0.10;;
44078;SDS011;29744;49.078;12.878;2023-02-26T09:05:21;0.10;;;0.10;;
44078;SDS011;29744;49.078;12.878;2023-02-26T09:10:22;0.10;;;0.10;;
44078;SDS011;29744;49.078;12.878;2023-02-26T09:15:22;0.10;;;0.10;;
44078;SDS011;29744;49.078;12.878;2023-02-26T09:20:22;0.00;;;0.00;;
44078;SDS011;29744;49.078;12.878;2023-02-26T09:25:23;0.03;;;0.03;;
44078;SDS011;29744;49.078;12.878;2023-02-26T09:30:23;0.10;;;0.10;;
44078;SDS011;29744;49.078;12.878;2023-02-26T09:35:23;0.20;;;0.20;;
44078;SDS011;29744;49.078;12.878;2023-02-26T09:40:42;0.10;;;0.10;;
44078;SDS011;29744;49.078;12.878;2023-02-26T09:45:46;0.20;;;0.05;;
44078;SDS011;29744;49.078;12.878;2023-02-26T09:50:53;0.10;;;0.10;;
44078;SDS011;29744;49.078;12.878;2023-02-26T09:56:31;0.10;;;0.10;;
44078;SDS011;29744;49.078;12.878;2023-02-26T10:17:12;0.08;;;0.08;;
44078;SDS011;29744;49.078;12.878;2023-02-26T10:22:29;0.10;;;0.10;;
44078;SDS011;29744;49.078;12.878;2023-02-26T10:33:37;0.70;;;0.45;;
44078;SDS011;29744;49.078;12.878;2023-02-26T10:38:28;1.73;;;1.10;;
44078;SDS011;29744;49.078;12.878;2023-02-26T10:43:40;1.50;;;0.90;;
44078;SDS011;29744;49.078;12.878;2023-02-26T10:48:54;1.70;;;0.93;;
44078;SDS011;29744;49.078;12.878;2023-02-26T10:54:24;1.98;;;0.93;;
44078;SDS011;29744;49.078;12.878;2023-02-26T10:59:30;2.03;;;1.17;;
44078;SDS011;29744;49.078;12.878;2023-02-26T11:04:30;1.40;;;0.80;;
44078;SDS011;29744;49.078;12.878;2023-02-26T11:09:38;1.55;;;0.90;;
44078;SDS011;29744;49.078;12.878;2023-02-26T11:14:42;1.50;;;0.90;;
44078;SDS011;29744;49.078;12.878;2023-02-26T11:19:49;1.38;;;0.85;;
44078;SDS011;29744;49.078;12.878;2023-02-26T11:24:56;1.88;;;0.95;;
44078;SDS011;29744;49.078;12.878;2023-02-26T11:29:59;1.30;;;0.80;;
44078;SDS011;29744;49.078;12.878;2023-02-26T11:35:07;1.45;;;0.70;;
44078;SDS011;29744;49.078;12.878;2023-02-26T11:40:21;1.35;;;0.88;;
44078;SDS011;29744;49.078;12.878;2023-02-26T11:45:25;1.73;;;0.82;;
44078;SDS011;29744;49.078;12.878;2023-02-26T11:50:26;1.40;;;0.80;;
44078;SDS011;29744;49.078;12.878;2023-02-26T11:55:28;1.00;;;0.70;;
44078;SDS011;29744;49.078;12.878;2023-02-26T12:00:34;1.52;;;0.70;;
44078;SDS011;29744;49.078;12.878;2023-02-26T12:05:37;1.05;;;0.68;;
44078;SDS011;29744;49.078;12.878;2023-02-26T12:16:11;1.35;;;0.77;;
44078;SDS011;29744;49.078;12.878;2023-02-26T12:26:45;1.52;;;0.85;;
44078;SDS011;29744;49.078;12.878;2023-02-26T12:32:10;0.85;;;0.50;;
44078;SDS011;29744;49.078;12.878;2023-02-26T12:37:27;0.90;;;0.70;;
44078;SDS011;29744;49.078;12.878;2023-02-26T12:43:17;1.20;;;0.70;;
44078;SDS011;29744;49.078;12.878;2023-02-26T12:59:27;0.90;;;0.70;;
44078;SDS011;29744;49.078;12.878;2023-02-26T13:05:04;0.73;;;0.60;;
44078;SDS011;29744;49.078;12.878;2023-02-26T13:15:32;0.70;;;0.60;;
44078;SDS011;29744;49.078;12.878;2023-02-26T13:20:57;1.40;;;0.70;;
44078;SDS011;29744;49.078;12.878;2023-02-26T13:26:01;1.17;;;0.63;;
44078;SDS011;29744;49.078;12.878;2023-02-26T13:36:33;0.93;;;0.60;;
44078;SDS011;29744;49.078;12.878;2023-02-26T13:41:37;0.90;;;0.68;;
44078;SDS011;29744;49.078;12.878;2023-02-26T13:47:11;1.13;;;0.70;;
44078;SDS011;29744;49.078;12.878;2023-02-26T13:52:29;1.55;;;0.88;;
44078;SDS011;29744;49.078;12.878;2023-02-26T13:58:07;0.98;;;0.63;;
44078;SDS011;29744;49.078;12.878;2023-02-26T14:02:58;0.80;;;0.60;;
44078;SDS011;29744;49.078;12.878;2023-02-26T14:08:18;0.60;;;0.60;;
44078;SDS011;29744;49.078;12.878;2023-02-26T14:13:34;1.08;;;0.60;;
44078;SDS011;29744;49.078;12.878;2023-02-26T14:23:46;1.23;;;0.70;;
44078;SDS011;29744;49.078;12.878;2023-02-26T14:28:55;0.52;;;0.50;;
44078;SDS011;29744;49.078;12.878;2023-02-26T14:34:13;0.88;;;0.60;;
44078;SDS011;29744;49.078;12.878;2023-02-26T14:39:38;1.02;;;0.60;;
44078;SDS011;29744;49.078;12.878;2023-02-26T14:44:40;1.15;;;0.70;;
44078;SDS011;29744;49.078;12.878;2023-02-26T14:49:44;0.52;;;0.50;;
44078;SDS011;29744;49.078;12.878;2023-02-26T15:05:26;0.80;;;0.50;;
44078;SDS011;29744;49.078;12.878;2023-02-26T15:20:57;0.50;;;0.50;;
44078;SDS011;29744;49.078;12.878;2023-02-26T15:26:21;0.98;;;0.50;;
44078;SDS011;29744;49.078;12.878;2023-02-26T15:31:35;0.43;;;0.40;;
44078;SDS011;29744;49.078;12.878;2023-02-26T15:36:44;1.05;;;0.50;;
44078;SDS011;29744;49.078;12.878;2023-02-26T15:41:46;0.57;;;0.50;;
44078;SDS011;29744;49.078;12.878;2023-02-26T15:46:52;0.30;;;0.25;;
44078;SDS011;29744;49.078;12.878;2023-02-26T15:51:56;0.40;;;0.35;;
44078;SDS011;29744;49.078;12.878;2023-02-26T15:57:00;0.73;;;0.40;;
44078;SDS011;29744;49.078;12.878;2023-02-26T16:02:01;0.60;;;0.30;;
44078;SDS011;29744;49.078;12.878;2023-02-26T16:07:01;1.25;;;0.70;;
44078;SDS011;29744;49.078;12.878;2023-02-26T16:12:06;0.47;;;0.45;;
44078;SDS011;29744;49.078;12.878;2023-02-26T16:22:26;0.88;;;0.47;;
44078;SDS011;29744;49.078;12.878;2023-02-26T16:27:30;0.32;;;0.32;;
44078;SDS011;29744;49.078;12.878;2023-02-26T16:32:32;0.55;;;0.40;;
44078;SDS011;29744;49.078;12.878;2023-02-26T16:37:34;0.30;;;0.30;;
44078;SDS011;29744;49.078;12.878;2023-02-26T16:47:51;0.88;;;0.60;;
44078;SDS011;29744;49.078;12.878;2023-02-26T16:53:01;0.45;;;0.40;;
44078;SDS011;29744;49.078;12.878;2023-02-26T16:58:07;0.30;;;0.30;;
44078;SDS011;29744;49.078;12.878;2023-02-26T17:03:16;0.60;;;0.40;;
44078;SDS011;29744;49.078;12.878;2023-02-26T17:08:19;0.45;;;0.40;;
44078;SDS011;29744;49.078;12.878;2023-02-26T17:13:26;0.40;;;0.40;;
44078;SDS011;29744;49.078;12.878;2023-02-26T17:18:28;0.50;;;0.40;;
44078;SDS011;29744;49.078;12.878;2023-02-26T17:23:31;0.30;;;0.30;;
44078;SDS011;29744;49.078;12.878;2023-02-26T17:28:36;0.83;;;0.47;;
44078;SDS011;29744;49.078;12.878;2023-02-26T17:33:41;0.40;;;0.40;;
44078;SDS011;29744;49.078;12.878;2023-02-26T17:38:43;0.32;;;0.30;;
44078;SDS011;29744;49.078;12.878;2023-02-26T17:43:46;0.30;;;0.30;;
44078;SDS011;29744;49.078;12.878;2023-02-26T17:48:46;0.60;;;0.40;;
44078;SDS011;29744;49.078;12.878;2023-02-26T17:53:46;0.40;;;0.30;;
44078;SDS011;29744;49.078;12.878;2023-02-26T17:58:47;0.32;;;0.30;;
44078;SDS011;29744;49.078;12.878;2023-02-26T18:03:49;0.40;;;0.40;;
44078;SDS011;29744;49.078;12.878;2023-02-26T18:08:49;0.43;;;0.40;;
44078;SDS011;29744;49.078;12.878;2023-02-26T18:13:51;0.70;;;0.40;;
44078;SDS011;29744;49.078;12.878;2023-02-26T18:18:51;0.40;;;0.30;;
44078;SDS011;29744;49.078;12.878;2023-02-26T18:23:53;0.38;;;0.30;;
44078;SDS011;29744;49.078;12.878;2023-02-26T18:28:55;0.40;;;0.30;;
44078;SDS011;29744;49.078;12.878;2023-02-26T18:33:57;0.75;;;0.40;;
44078;SDS011;29744;49.078;12.878;2023-02-26T18:38:57;0.30;;;0.30;;
44078;SDS011;29744;49.078;12.878;2023-02-26T18:44:00;0.40;;;0.40;;
44078;SDS011;29744;49.078;12.878;2023-02-26T18:49:01;0.40;;;0.30;;
44078;SDS011;29744;49.078;12.878;2023-02-26T18:54:01;0.30;;;0.30;;
44078;SDS011;29744;49.078;12.878;2023-02-26T18:59:02;0.40;;;0.40;;
44078;SDS011;29744;49.078;12.878;2023-02-26T19:04:02;0.60;;;0.30;;
44078;SDS011;29744;49.078;12.878;2023-02-26T19:09:03;0.50;;;0.30;;
44078;SDS011;29744;49.078;12.878;2023-02-26T19:14:04;0.77;;;0.40;;
44078;SDS011;29744;49.078;12.878;2023-02-26T19:19:05;0.47;;;0.28;;
44078;SDS011;29744;49.078;12.878;2023-02-26T19:24:07;0.45;;;0.35;;
44078;SDS011;29744;49.078;12.878;2023-02-26T19:29:09;0.40;;;0.35;;
44078;SDS011;29744;49.078;12.878;2023-02-26T19:34:14;0.55;;;0.40;;
44078;SDS011;29744;49.078;12.878;2023-02-26T19:39:16;0.30;;;0.30;;
44078;SDS011;29744;49.078;12.878;2023-02-26T19:44:18;0.50;;;0.30;;
44078;SDS011;29744;49.078;12.878;2023-02-26T19:49:21;0.32;;;0.30;;
44078;SDS011;29744;49.078;12.878;2023-02-26T19:54:22;0.40;;;0.35;;
44078;SDS011;29744;49.078;12.878;2023-02-26T19:59:22;0.30;;;0.25;;
44078;SDS011;29744;49.078;12.878;2023-02-26T20:04:22;0.30;;;0.20;;
44078;SDS011;29744;49.078;12.878;2023-02-26T20:09:23;0.20;;;0.20;;
44078;SDS011;29744;49.078;12.878;2023-02-26T20:14:23;0.38;;;0.28;;
44078;SDS011;29744;49.078;12.878;2023-02-26T20:19:24;0.30;;;0.30;;
44078;SDS011;29744;49.078;12.878;2023-02-26T20:24:24;0.73;;;0.40;;
44078;SDS011;29744;49.078;12.878;2023-02-26T20:29:25;0.40;;;0.32;;
44078;SDS011;29744;49.078;12.878;2023-02-26T20:34:25;0.60;;;0.40;;
44078;SDS011;29744;49.078;12.878;2023-02-26T20:39:25;0.30;;;0.30;;
44078;SDS011;29744;49.078;12.878;2023-02-26T20:44:26;0.55;;;0.30;;
44078;SDS011;29744;49.078;12.878;2023-02-26T20:49:26;0.20;;;0.20;;
44078;SDS011;29744;49.078;12.878;2023-02-26T20:54:27;0.30;;;0.30;;
44078;SDS011;29744;49.078;12.878;2023-02-26T20:59:27;0.50;;;0.30;;
44078;SDS011;29744;49.078;12.878;2023-02-26T21:04:28;0.43;;;0.30;;
44078;SDS011;29744;49.078;12.878;2023-02-26T21:09:28;0.73;;;0.40;;
44078;SDS011;29744;49.078;12.878;2023-02-26T21:14:29;0.43;;;0.30;;
44078;SDS011;29744;49.078;12.878;2023-02-26T21:19:30;0.30;;;0.30;;
44078;SDS011;29744;49.078;12.878;2023-02-26T21:24:30;0.47;;;0.30;;
44078;SDS011;29744;49.078;12.878;2023-02-26T21:29:30;0.43;;;0.30;;
44078;SDS011;29744;49.078;12.878;2023-02-26T21:34:32;0.60;;;0.30;;
44078;SDS011;29744;49.078;12.878;2023-02-26T21:39:34;0.45;;;0.22;;
44078;SDS011;29744;49.078;12.878;2023-02-26T21:44:35;0.40;;;0.22;;
44078;SDS011;29744;49.078;12.878;2023-02-26T21:49:35;0.47;;;0.30;;
44078;SDS011;29744;49.078;12.878;2023-02-26T21:54:36;0.40;;;0.30;;
44078;SDS011;29744;49.078;12.878;2023-02-26T21:59:36;0.60;;;0.40;;
44078;SDS011;29744;49.078;12.878;2023-02-26T22:04:36;0.43;;;0.30;;
44078;SDS011;29744;49.078;12.878;2023-02-26T22:09:37;0.38;;;0.32;;
44078;SDS011;29744;49.078;12.878;2023-02-26T22:14:37;0.30;;;0.30;;
44078;SDS011;29744;49.078;12.878;2023-02-26T22:19:37;0.40;;;0.30;;
44078;SDS011;29744;49.078;12.878;2023-02-26T22:24:38;0.30;;;0.30;;
44078;SDS011;29744;49.078;12.878;2023-02-26T22:29:39;0.50;;;0.30;;
44078;SDS011;29744;49.078;12.878;2023-02-26T22:34:40;0.20;;;0.20;;
44078;SDS011;29744;49.078;12.878;2023-02-26T22:39:40;0.45;;;0.40;;
44078;SDS011;29744;49.078;12.878;2023-02-26T22:44:41;0.50;;;0.35;;
44078;SDS011;29744;49.078;12.878;2023-02-26T22:49:41;0.73;;;0.35;;
44078;SDS011;29744;49.078;12.878;2023-02-26T22:54:42;0.32;;;0.20;;
44078;SDS011;29744;49.078;12.878;2023-02-26T22:59:45;0.50;;;0.30;;
44078;SDS011;29744;49.078;12.878;2023-02-26T23:04:46;0.30;;;0.30;;
44078;SDS011;29744;49.078;12.878;2023-02-26T23:09:46;0.30;;;0.30;;
44078;SDS011;29744;49.078;12.878;2023-02-26T23:14:47;0.30;;;0.20;;
44078;SDS011;29744;49.078;12.878;2023-02-26T23:19:47;0.52;;;0.30;;
44078;SDS011;29744;49.078;12.878;2023-02-26T23:24:47;0.57;;;0.30;;
44078;SDS011;29744;49.078;12.878;2023-02-26T23:29:47;0.22;;;0.20;;
44078;SDS011;29744;49.078;12.878;2023-02-26T23:34:48;0.20;;;0.20;;
44078;SDS011;29744;49.078;12.878;2023-02-26T23:39:48;0.32;;;0.30;;
44078;SDS011;29744;49.078;12.878;2023-02-26T23:44:48;0.57;;;0.30;;
44078;SDS011;29744;49.078;12.878;2023-02-26T23:49:49;0.43;;;0.38;;
44078;SDS011;29744;49.078;12.878;2023-02-26T23:54:49;0.30;;;0.13;;
44078;SDS011;29744;49.078;12.878;2023-02-26T23:59:49;0.60;;;0.30;;
